OMDBOMFJ

Guest
Details From OMDB - DUBAI INTL
To OMFJ - FUJAIRAH INTL
Flight Number -
Tags generated
Created
Modified
Stats Distance 54 nm / 99 km
Max Altitude 4,400 ft / 1,341 m
Waypoints 3
Social Downloads 1
Likes 0
Share VATSIM

Download

Looking for another format? Having issues loading an existing format? Contact us
Advertisement - Login to hide

Notes

Basic altitude profile: - Ascent Rate: 2500ft/min - Ascent Speed: 250kts - Cruise Altitude: 35000ft - Cruise Speed: 420kts - Descent Rate: 1500ft/min - Descent Speed: 250kts Options: - Use NATs: yes - Use PACOTS: yes - Use low airways: yes - Use high airways: yes

Route

OMDB AVAMI OMFJ

ID Type Via Altitude Latitude Longitude Leg Dist Tot Dist Heading (true) Name
O OMDB APT - 0 ft / 0 m 25.25491˚ 55.36426˚ - 0 nm - DUBAI INTL
AVAMI FIX - 4,400 ft / 1,341 m 25.09833˚ 55.94639˚ 33 nm 33 nm 106° / 107° -
O OMFJ APT - 0 ft / 0 m 25.11212˚ 56.32422˚ 20 nm 53 nm 88° / 88° FUJAIRAH INTL

Altitude Profile

Advertisement - Login to hide

OMDB

Details ICAO OMDB (DXB)
Name DUBAI INTL
Region United Arab Emirates
Timezone Asia/Dubai (UTC+4.0)
Stats Elevation 62 ft / 19 m (AMSL)
Location 25.254912° 55.364260°
Runways 2
Magnetic Variation 2.047° E

METAR

OMDB 150000Z 11008KT 080V170 CAVOK 20/11 Q1016 NOSIG

Decode

TAF

TAF OMDB 142255Z 1500/1606 14008KT 8000 FEW040 PROB30 TEMPO 1505/1508 17015G25KT 4000 BLDU PROB40 1510/1515 36010KT

Decode

Departure Runways

ID Width Length Bearing (true) Bearing (mag) Surface Threshold Offset Overrun Length
12L 197 ft / 60 m 13,124 ft / 4,000 m 121.49° 119.44° Asphalt 1,312 ft / 400 m 395 ft / 120 m
12R 151 ft / 46 m 13,139 ft / 4,005 m 121.48° 119.43° Asphalt 394 ft / 120 m 197 ft / 60 m
30L 151 ft / 46 m 13,139 ft / 4,005 m 301.50° 299.45° Asphalt 2,953 ft / 900 m 197 ft / 60 m
30R 197 ft / 60 m 13,124 ft / 4,000 m 301.51° 299.46° Asphalt 0 ft / 0 m 395 ft / 120 m

OMFJ

Details ICAO OMFJ (FJR)
Name FUJAIRAH INTL
Region United Arab Emirates
Timezone Asia/Dubai (UTC+4.0)
Stats Elevation 152 ft / 46 m (AMSL)
Location 25.112116° 56.324217°
Runways 1
Magnetic Variation 1.922° E

METAR

OMFJ 150000Z 30004KT CAVOK 19/12 Q1017 RMK A3005

Decode

TAF

Not found

Destination Runways

ID Width Length Bearing (true) Bearing (mag) Surface Threshold Offset Overrun Length
11 148 ft / 45 m 12,296 ft / 3,748 m 112.53° 110.61° Asphalt 2,296 ft / 700 m 328 ft / 100 m
29 148 ft / 45 m 12,296 ft / 3,748 m 292.55° 290.63° Asphalt 0 ft / 0 m 328 ft / 100 m

Approach Navaids

Runway Type Ident Frequency Range Bearing (true) Bearing (mag) Slope Elevation
29 Localiser IFJR 111.50 MHz 18 nm / 33 km 292.53° 290.61° - 152 ft / 46 m (AMSL)
29 Glidescope IFJR 111.50 MHz 10 nm / 19 km 292.54° 290.62° 3.00° 152 ft / 46 m (AMSL)

Popular Alternatives